Time;durP1;ratioP1;P1;durP2;ratioP2;P2;SDS_P1;SDS_P2;PMS_P1;PMS_P2;Temp;Humidity;BMP_temperature;BMP_pressure;BME280_temperature;BME280_humidity;BME280_pressure;Samples;Min_cycle;Max_cycle;Signal;HPM_P1;HPM_P2
2022/02/20 00:00:21;;;;;;;;;0.67;0.67;;;;;13.70;100.00;101436.69;5096561;27;45479;-91
2022/02/20 00:02:48;;;;;;;;;2.67;1.67;;;;;13.70;100.00;101447.22;5092695;27;45340;-91
2022/02/20 00:05:14;;;;;;;;;1.33;0.00;;;;;13.72;100.00;101446.47;5096017;27;47937;-92
2022/02/20 00:07:39;;;;;;;;;4.00;1.00;;;;;13.69;100.00;101438.41;5096430;27;45512;-91
2022/02/20 00:10:06;;;;;;;;;2.00;0.00;;;;;13.71;100.00;101435.84;5092353;27;45335;-91
2022/02/20 00:12:31;;;;;;;;;1.00;1.00;;;;;13.74;100.00;101442.16;5086778;27;45373;-92
2022/02/20 00:14:57;;;;;;;;;1.00;1.00;;;;;13.74;100.00;101438.59;5096379;27;47940;-92
2022/02/20 00:17:22;;;;;;;;;1.00;1.00;;;;;13.70;100.00;101432.31;5102070;27;45272;-91
2022/02/20 00:19:49;;;;;;;;;4.00;2.67;;;;;13.75;100.00;101435.16;5106131;27;44724;-91
2022/02/20 00:22:15;;;;;;;;;3.67;1.00;;;;;13.72;100.00;101429.72;5121683;27;44884;-92
2022/02/20 00:24:40;;;;;;;;;3.00;2.00;;;;;13.76;100.00;101430.78;5120031;27;46930;-92
2022/02/20 00:27:05;;;;;;;;;2.00;2.00;;;;;13.79;100.00;101439.72;5115557;27;45241;-92
2022/02/20 00:29:31;;;;;;;;;2.00;2.00;;;;;13.83;100.00;101441.66;5095483;27;45576;-91
2022/02/20 00:31:56;;;;;;;;;7.00;4.00;;;;;13.81;100.00;101435.41;5096392;27;45516;-92
2022/02/20 00:34:21;;;;;;;;;1.67;1.67;;;;;13.82;100.00;101433.66;5094770;27;47037;-92
2022/02/20 00:36:47;;;;;;;;;0.00;0.00;;;;;13.81;100.00;101431.88;5101493;27;45562;-92
2022/02/20 00:39:12;;;;;;;;;3.67;1.67;;;;;13.81;100.00;101434.53;5104759;27;45493;-92
2022/02/20 00:41:37;;;;;;;;;1.33;1.33;;;;;13.82;100.00;101438.94;5093392;27;45431;-92
2022/02/20 00:44:03;;;;;;;;;2.00;1.00;;;;;13.79;100.00;101436.16;5096096;27;45338;-92
2022/02/20 00:46:28;;;;;;;;;2.00;1.00;;;;;13.76;100.00;101421.09;5094346;27;45528;-92
2022/02/20 00:48:53;;;;;;;;;0.00;0.00;;;;;13.79;100.00;101438.81;5094615;27;45582;-92
2022/02/20 00:51:19;;;;;;;;;0.33;0.00;;;;;13.77;100.00;101437.84;5094554;27;45900;-91
2022/02/20 00:53:44;;;;;;;;;1.00;1.00;;;;;13.79;100.00;101447.63;5095438;27;45407;-92
2022/02/20 00:56:10;;;;;;;;;1.00;1.00;;;;;13.77;100.00;101428.19;5090445;27;45434;-91
2022/02/20 00:58:35;;;;;;;;;0.33;0.33;;;;;13.78;100.00;101432.66;5094033;27;45543;-91
2022/02/20 01:01:00;;;;;;;;;2.00;2.00;;;;;13.79;100.00;101426.50;5093865;27;45592;-91
2022/02/20 01:03:26;;;;;;;;;2.00;0.00;;;;;13.81;100.00;101422.19;5093430;27;47132;-91
2022/02/20 01:05:52;;;;;;;;;3.33;2.00;;;;;13.81;100.00;101416.03;5094026;27;45350;-91
2022/02/20 01:08:17;;;;;;;;;1.00;1.00;;;;;13.79;100.00;101415.97;5089813;27;45525;-91
2022/02/20 01:10:43;;;;;;;;;1.00;1.00;;;;;13.85;100.00;101416.22;5094243;27;45370;-92
2022/02/20 01:13:10;;;;;;;;;1.00;1.00;;;;;13.92;100.00;101416.47;5092798;27;46909;-91
2022/02/20 01:15:44;;;;;;;;;1.00;1.00;;;;;13.95;100.00;101424.53;5101696;27;45557;-92
2022/02/20 01:18:10;;;;;;;;;2.67;0.67;;;;;13.92;100.00;101422.66;5097792;27;45519;-92
2022/02/20 01:20:35;;;;;;;;;2.00;1.33;;;;;13.95;100.00;101416.63;5099429;27;45406;-92
2022/02/20 01:23:01;;;;;;;;;3.33;2.67;;;;;13.99;100.00;101413.28;5115150;27;47525;-91
2022/02/20 01:25:26;;;;;;;;;1.00;1.00;;;;;14.02;100.00;101421.31;5096155;27;45391;-91
2022/02/20 01:27:51;;;;;;;;;3.00;2.00;;;;;14.03;100.00;101420.50;5100411;27;45406;-92
2022/02/20 01:30:17;;;;;;;;;2.00;0.33;;;;;14.07;100.00;101424.16;5099061;27;45518;-92
2022/02/20 01:32:43;;;;;;;;;4.00;0.67;;;;;14.05;100.00;101425.81;5099486;27;48235;-92
2022/02/20 01:35:09;;;;;;;;;1.00;1.00;;;;;14.08;100.00;101418.94;5097873;27;45340;-91
2022/02/20 01:37:35;;;;;;;;;3.33;2.00;;;;;14.01;100.00;101422.16;5098011;27;45515;-92
2022/02/20 01:40:02;;;;;;;;;3.00;3.00;;;;;14.10;100.00;101433.94;5097840;27;45489;-91
2022/02/20 01:42:28;;;;;;;;;2.00;1.00;;;;;14.04;100.00;101435.50;5085683;27;48472;-92
2022/02/20 01:44:53;;;;;;;;;2.67;1.67;;;;;14.05;100.00;101441.66;5080010;27;45325;-91
2022/02/20 01:47:18;;;;;;;;;0.67;0.67;;;;;14.07;100.00;101432.97;5100394;27;45740;-91
2022/02/20 01:49:44;;;;;;;;;2.67;1.00;;;;;14.10;100.00;101431.28;5097898;27;45284;-92
2022/02/20 01:52:10;;;;;;;;;3.33;1.33;;;;;14.14;100.00;101436.78;5091684;27;48131;-89
2022/02/20 01:54:36;;;;;;;;;4.00;2.00;;;;;14.14;100.00;101428.88;5087578;27;45306;-89
2022/02/20 01:57:05;;;;;;;;;1.00;1.00;;;;;14.18;100.00;101433.41;5097486;27;45728;-90
2022/02/20 01:59:30;;;;;;;;;4.00;3.00;;;;;14.12;100.00;101414.66;5094304;27;45710;-91
2022/02/20 02:01:56;;;;;;;;;2.00;2.00;;;;;14.11;100.00;101411.97;5095820;27;46170;-91
2022/02/20 02:04:22;;;;;;;;;2.00;2.00;;;;;14.18;100.00;101422.84;5091891;27;61403;-91
2022/02/20 02:06:47;;;;;;;;;2.67;2.00;;;;;14.16;100.00;101413.97;5094128;27;45442;-89
2022/02/20 02:09:14;;;;;;;;;3.00;1.00;;;;;14.18;100.00;101417.59;5104227;27;45576;-92
2022/02/20 02:11:41;;;;;;;;;2.67;1.33;;;;;14.14;100.00;101422.69;5091351;27;47387;-92
2022/02/20 02:14:07;;;;;;;;;6.33;2.00;;;;;14.14;100.00;101430.59;5092071;27;45548;-91
2022/02/20 02:16:32;;;;;;;;;4.00;2.67;;;;;14.13;100.00;101421.75;5091079;27;45641;-91
2022/02/20 02:18:57;;;;;;;;;5.00;2.00;;;;;14.14;100.00;101420.94;5092532;27;45455;-93
2022/02/20 02:21:23;;;;;;;;;4.67;1.00;;;;;14.14;100.00;101420.03;5091025;27;57497;-90
2022/02/20 02:23:48;;;;;;;;;3.00;2.00;;;;;14.16;100.00;101419.25;5093924;27;45587;-91
2022/02/20 02:26:15;;;;;;;;;7.00;2.33;;;;;14.24;100.00;101429.22;5091931;27;47248;-91
2022/02/20 02:28:41;;;;;;;;;3.67;1.00;;;;;14.22;100.00;101420.34;5106267;27;45380;-92
2022/02/20 02:31:07;;;;;;;;;2.00;2.00;;;;;14.25;100.00;101424.00;5096153;27;47621;-92
2022/02/20 02:33:34;;;;;;;;;2.00;0.67;;;;;14.21;100.00;101403.59;5093425;27;45336;-92
2022/02/20 02:36:01;;;;;;;;;2.33;2.00;;;;;14.17;100.00;101404.34;5089778;27;45429;-92
2022/02/20 02:38:27;;;;;;;;;5.00;2.00;;;;;14.14;100.00;101396.28;5093179;27;45682;-91
2022/02/20 02:40:57;;;;;;;;;3.00;1.00;;;;;14.13;100.00;101405.03;5093086;27;47162;-91
2022/02/20 02:43:23;;;;;;;;;1.00;1.00;;;;;14.01;100.00;101408.97;5091260;27;45444;-92
2022/02/20 02:45:49;;;;;;;;;1.00;1.00;;;;;14.00;100.00;101408.88;5094107;27;45324;-91
2022/02/20 02:48:14;;;;;;;;;2.00;0.00;;;;;13.96;100.00;101415.78;5093828;27;46091;-92
2022/02/20 02:50:40;;;;;;;;;3.00;1.33;;;;;13.97;100.00;101420.22;5092948;27;47366;-92
2022/02/20 02:53:07;;;;;;;;;3.00;3.00;;;;;13.97;100.00;101412.28;5216323;22;45345;-91
2022/02/20 02:55:33;;;;;;;;;2.33;2.00;;;;;13.93;100.00;101421.84;5040470;28;45339;-91
2022/02/20 02:57:58;;;;;;;;;3.33;2.00;;;;;13.89;100.00;101416.38;5039933;28;45490;-91
2022/02/20 03:00:24;;;;;;;;;3.00;2.00;;;;;13.90;100.00;101415.53;5068414;28;46531;-91
2022/02/20 03:02:49;;;;;;;;;5.00;3.00;;;;;13.89;100.00;101419.00;5053416;28;45579;-91
2022/02/20 03:05:15;;;;;;;;;1.33;1.33;;;;;13.80;100.00;101420.41;5040429;28;45675;-91
2022/02/20 03:07:42;;;;;;;;;2.00;2.00;;;;;13.79;100.00;101422.97;5050845;28;45572;-91
2022/02/20 03:10:08;;;;;;;;;2.00;2.00;;;;;13.73;100.00;101419.25;5044423;28;47190;-92
2022/02/20 03:12:33;;;;;;;;;2.00;1.00;;;;;13.69;100.00;101405.84;5233409;22;45334;-90
2022/02/20 03:14:58;;;;;;;;;3.00;1.00;;;;;13.67;100.00;101405.78;5082801;27;45372;-89
2022/02/20 03:17:23;;;;;;;;;2.33;1.33;;;;;13.61;100.00;101390.59;5078479;27;45423;-90
2022/02/20 03:19:49;;;;;;;;;2.33;2.00;;;;;13.61;100.00;101392.31;5085273;27;48370;-89
2022/02/20 03:22:15;;;;;;;;;5.00;2.00;;;;;13.63;100.00;101412.66;5093093;27;48764;-90
2022/02/20 03:24:41;;;;;;;;;4.00;3.00;;;;;13.69;100.00;101426.94;5096494;27;45395;-90
2022/02/20 03:27:06;;;;;;;;;3.67;1.00;;;;;13.70;100.00;101412.94;5096687;27;45303;-90
2022/02/20 03:29:32;;;;;;;;;3.67;2.33;;;;;13.76;100.00;101404.41;5097346;27;46680;-90
2022/02/20 03:31:58;;;;;;;;;3.67;3.00;;;;;13.74;100.00;101412.22;5104472;27;45196;-90
2022/02/20 03:34:23;;;;;;;;;4.67;2.00;;;;;13.71;100.00;101417.41;5089158;27;45311;-90
2022/02/20 03:36:49;;;;;;;;;7.33;2.33;;;;;13.74;100.00;101422.78;5091641;27;45485;-90
2022/02/20 03:39:14;;;;;;;;;2.67;2.33;;;;;13.76;100.00;101426.38;5091684;27;47417;-90
2022/02/20 03:41:39;;;;;;;;;3.00;1.67;;;;;13.74;100.00;101425.41;5080828;27;45369;-90
2022/02/20 03:44:05;;;;;;;;;5.00;3.00;;;;;13.71;100.00;101420.03;5098569;27;45373;-91
2022/02/20 03:46:31;;;;;;;;;1.33;1.33;;;;;13.68;100.00;101428.72;5098276;27;45721;-90
2022/02/20 03:48:56;;;;;;;;;7.00;2.00;;;;;13.66;100.00;101418.94;5120687;27;47951;-91
2022/02/20 03:51:21;;;;;;;;;1.67;1.00;;;;;13.68;100.00;101434.00;5125007;27;44758;-90
2022/02/20 03:53:47;;;;;;;;;4.00;2.67;;;;;13.71;100.00;101427.94;5116195;27;44734;-89
2022/02/20 03:56:12;;;;;;;;;2.67;1.33;;;;;13.77;100.00;101422.00;5096235;27;44946;-91
2022/02/20 03:58:37;;;;;;;;;8.33;4.00;;;;;13.79;100.00;101423.88;5119543;27;46869;-90
2022/02/20 04:01:03;;;;;;;;;2.67;2.67;;;;;13.83;100.00;101424.91;5096440;27;45489;-89
2022/02/20 04:03:28;;;;;;;;;3.67;2.00;;;;;13.87;100.00;101424.22;5096100;27;45620;-90
2022/02/20 04:05:53;;;;;;;;;3.33;2.00;;;;;13.90;100.00;101415.53;5114045;27;45468;-90
2022/02/20 04:08:19;;;;;;;;;2.00;2.00;;;;;13.97;100.00;101420.22;5113148;27;47449;-90
2022/02/20 04:10:44;;;;;;;;;5.33;2.00;;;;;13.91;100.00;101405.03;5085784;27;45427;-90
2022/02/20 04:13:10;;;;;;;;;1.00;1.00;;;;;13.96;100.00;101407.88;5088080;27;45274;-90
2022/02/20 04:15:35;;;;;;;;;2.00;1.67;;;;;13.95;100.00;101406.06;5082855;27;45294;-89
2022/02/20 04:18:00;;;;;;;;;3.00;3.00;;;;;14.03;100.00;101416.94;5094923;27;56352;-90
2022/02/20 04:20:26;;;;;;;;;2.00;1.00;;;;;14.01;100.00;101411.59;5097535;27;45347;-90
2022/02/20 04:22:51;;;;;;;;;4.67;1.67;;;;;14.01;100.00;101401.06;5103849;27;45282;-89
2022/02/20 04:25:17;;;;;;;;;2.67;2.00;;;;;14.04;100.00;101405.56;5088999;27;45552;-89
2022/02/20 04:27:45;;;;;;;;;8.33;2.67;;;;;14.02;100.00;101399.31;5082074;27;47133;-89
2022/02/20 04:30:16;;;;;;;;;2.33;2.00;;;;;13.98;100.00;101406.19;5083287;27;47292;-90
2022/02/20 04:32:42;;;;;;;;;0.67;0.67;;;;;13.95;100.00;101417.53;5080303;27;45326;-89
2022/02/20 04:35:07;;;;;;;;;5.00;3.00;;;;;13.93;100.00;101415.66;5113766;27;45363;-88
2022/02/20 04:37:33;;;;;;;;;3.67;3.67;;;;;13.91;100.00;101397.13;5091522;27;47175;-89
2022/02/20 04:40:00;;;;;;;;;2.00;2.00;;;;;13.94;100.00;101393.72;5088048;27;45902;-91
2022/02/20 04:42:26;;;;;;;;;3.33;2.33;;;;;13.89;100.00;101377.66;5139340;22;46717;-90
2022/02/20 04:44:51;;;;;;;;;3.33;1.00;;;;;13.93;100.00;101384.00;5058280;28;45561;-90
2022/02/20 04:47:16;;;;;;;;;2.00;1.00;;;;;13.90;100.00;101373.28;5074254;28;48162;-90
2022/02/20 04:49:42;;;;;;;;;2.67;2.00;;;;;13.88;100.00;101367.06;5055121;28;45373;-91
2022/02/20 04:52:07;;;;;;;;;1.33;1.33;;;;;13.90;100.00;101375.94;5054696;28;45570;-91
2022/02/20 04:54:32;;;;;;;;;3.00;3.00;;;;;13.84;100.00;101374.84;5056559;28;45540;-91
2022/02/20 04:56:58;;;;;;;;;8.67;2.00;;;;;13.78;100.00;101369.31;5073892;28;46712;-91
2022/02/20 04:59:23;;;;;;;;;4.33;2.33;;;;;13.81;100.00;101369.44;5064797;28;45351;-91
2022/02/20 05:01:48;;;;;;;;;5.33;1.33;;;;;13.77;100.00;101370.16;5056953;28;45715;-90
2022/02/20 05:04:14;;;;;;;;;4.00;2.67;;;;;13.76;100.00;101364.81;5072585;27;45380;-91
2022/02/20 05:06:39;;;;;;;;;4.00;2.33;;;;;13.81;100.00;101358.88;5053967;28;46953;-90
2022/02/20 05:09:04;;;;;;;;;1.00;1.00;;;;;13.73;100.00;101340.13;5075131;27;45403;-90
2022/02/20 05:11:31;;;;;;;;;3.33;1.67;;;;;13.78;100.00;101350.84;5058899;28;45593;-91
2022/02/20 05:13:58;;;;;;;;;4.33;2.00;;;;;13.84;100.00;101359.00;5061757;28;45516;-91
2022/02/20 05:16:25;;;;;;;;;3.67;2.67;;;;;13.88;100.00;101356.50;5072373;27;47314;-91
2022/02/20 05:18:51;;;;;;;;;7.00;3.00;;;;;13.76;100.00;101341.94;5063555;28;45439;-91
2022/02/20 05:21:17;;;;;;;;;5.00;1.33;;;;;13.76;100.00;101339.31;5075030;27;45510;-91
2022/02/20 05:23:42;;;;;;;;;4.00;1.33;;;;;13.83;100.00;101337.84;5075522;28;45544;-90
2022/02/20 05:26:07;;;;;;;;;3.33;3.00;;;;;13.75;100.00;101319.06;5059391;28;46320;-90
2022/02/20 05:28:33;;;;;;;;;2.67;1.00;;;;;13.73;100.00;101329.56;5062666;28;45409;-91
2022/02/20 05:30:58;;;;;;;;;3.33;3.00;;;;;13.76;100.00;101336.66;5069959;27;45352;-90
2022/02/20 05:33:23;;;;;;;;;5.00;2.67;;;;;13.73;100.00;101339.22;5051812;28;45576;-90
2022/02/20 05:35:49;;;;;;;;;4.33;3.00;;;;;13.70;100.00;101346.97;5040764;28;47265;-90
2022/02/20 05:38:16;;;;;;;;;3.00;1.00;;;;;13.72;100.00;101355.84;5058989;28;45432;-91
2022/02/20 05:40:43;;;;;;;;;2.00;0.00;;;;;13.79;100.00;101354.38;5083297;27;45845;-90
2022/02/20 05:43:08;;;;;;;;;4.00;2.00;;;;;13.79;100.00;101357.91;5074520;28;45838;-91
2022/02/20 05:45:34;;;;;;;;;2.00;1.00;;;;;13.76;100.00;101365.69;5074625;28;46302;-90
2022/02/20 05:47:59;;;;;;;;;1.00;1.00;;;;;13.75;100.00;101382.38;5074318;28;45285;-90
2022/02/20 05:50:25;;;;;;;;;4.00;3.00;;;;;13.73;100.00;101381.41;5058943;28;45435;-90
2022/02/20 05:52:50;;;;;;;;;3.00;1.67;;;;;13.77;100.00;101390.34;5053942;28;45686;-90
2022/02/20 05:55:16;;;;;;;;;3.33;2.67;;;;;13.77;100.00;101383.34;5063447;28;46298;-91
2022/02/20 05:57:47;;;;;;;;;3.00;2.00;;;;;13.83;100.00;101373.06;5053783;28;45869;-91
2022/02/20 06:00:14;;;;;;;;;3.00;2.00;;;;;13.84;100.00;101380.13;5080349;28;45399;-90
2022/02/20 06:02:40;;;;;;;;;0.67;0.33;;;;;13.84;100.00;101374.84;5057062;28;45559;-90
2022/02/20 06:05:06;;;;;;;;;1.33;1.33;;;;;13.87;100.00;101367.88;5063750;28;47676;-90
2022/02/20 06:07:32;;;;;;;;;2.00;2.00;;;;;13.91;100.00;101376.00;5074495;27;45913;-91
2022/02/20 06:09:58;;;;;;;;;4.33;1.00;;;;;13.92;100.00;101376.88;5069012;28;45395;-91
2022/02/20 06:12:23;;;;;;;;;4.33;2.67;;;;;13.94;100.00;101352.38;5053162;28;45385;-90
2022/02/20 06:14:48;;;;;;;;;2.00;1.00;;;;;13.97;100.00;101346.31;5055626;28;47167;-91
2022/02/20 06:17:30;;;;;;;;;2.00;2.00;;;;;14.05;100.00;101350.19;5064161;28;45379;-91
2022/02/20 06:19:56;;;;;;;;;9.00;1.67;;;;;14.03;100.00;101353.59;5060649;28;45284;-91
2022/02/20 06:22:21;;;;;;;;;1.00;1.00;;;;;14.05;100.00;101344.00;5063711;28;45296;-92
2022/02/20 06:24:46;;;;;;;;;0.33;0.33;;;;;14.06;100.00;101341.44;5066751;28;48877;-91
2022/02/20 06:27:12;;;;;;;;;1.00;1.00;;;;;14.08;100.00;101336.19;5073666;27;45990;-90
2022/02/20 06:29:37;;;;;;;;;2.00;1.00;;;;;14.08;100.00;101342.38;5055746;28;45439;-91
2022/02/20 06:32:04;;;;;;;;;1.67;0.00;;;;;14.17;100.00;101338.31;5072913;28;45409;-91
2022/02/20 06:34:30;;;;;;;;;2.00;1.33;;;;;14.11;100.00;101343.34;5048908;28;47583;-91
2022/02/20 06:36:55;;;;;;;;;2.33;1.33;;;;;14.12;100.00;101345.16;5054682;28;45634;-90
2022/02/20 06:39:21;;;;;;;;;3.67;3.00;;;;;14.12;100.00;101337.25;5084965;27;45265;-91
2022/02/20 06:41:46;;;;;;;;;2.00;2.00;;;;;14.04;100.00;101329.91;5056648;28;45421;-91
2022/02/20 06:44:12;;;;;;;;;3.00;1.00;;;;;14.15;100.00;101318.84;5054308;28;45941;-90
2022/02/20 06:46:38;;;;;;;;;1.00;1.00;;;;;14.08;100.00;101320.38;5056419;28;45512;-91
2022/02/20 06:49:07;;;;;;;;;1.00;1.00;;;;;14.07;100.00;101326.50;5079015;28;45408;-92
2022/02/20 06:51:33;;;;;;;;;7.00;2.00;;;;;14.02;100.00;101323.66;5074290;27;45491;-87
2022/02/20 06:53:59;;;;;;;;;2.00;2.00;;;;;14.04;100.00;101323.72;5054410;28;47298;-88
2022/02/20 06:56:24;;;;;;;;;3.00;1.00;;;;;14.09;100.00;101340.66;5070542;28;45827;-88
2022/02/20 06:58:49;;;;;;;;;1.67;1.67;;;;;14.09;100.00;101330.09;5052614;28;45390;-88
2022/02/20 07:01:15;;;;;;;;;2.33;1.00;;;;;14.10;100.00;101329.25;5067612;28;45550;-89
2022/02/20 07:03:40;;;;;;;;;2.00;1.00;;;;;14.11;100.00;101338.97;5064852;28;45459;-87
2022/02/20 07:06:05;;;;;;;;;7.00;3.00;;;;;14.10;100.00;101333.59;5054108;28;45482;-87
2022/02/20 07:08:34;;;;;;;;;2.00;1.00;;;;;14.20;100.00;101341.06;5063655;28;46026;-87
2022/02/20 07:10:59;;;;;;;;;2.00;1.00;;;;;14.14;100.00;101331.19;5054115;28;45619;-88
2022/02/20 07:13:24;;;;;;;;;5.33;1.00;;;;;14.19;100.00;101344.56;5052356;28;46403;-88
2022/02/20 07:15:50;;;;;;;;;2.67;1.33;;;;;14.21;100.00;101331.41;5064214;28;45544;-88
2022/02/20 07:18:16;;;;;;;;;1.00;1.00;;;;;14.27;100.00;101352.78;5063067;28;45624;-87
2022/02/20 07:20:42;;;;;;;;;3.00;2.00;;;;;14.29;100.00;101354.66;5059825;28;45487;-88
2022/02/20 07:23:08;;;;;;;;;4.67;1.67;;;;;14.30;100.00;101361.72;5060121;28;46478;-88
2022/02/20 07:25:34;;;;;;;;;1.67;1.33;;;;;14.30;100.00;101368.75;5057447;28;45379;-87
2022/02/20 07:27:59;;;;;;;;;1.00;1.00;;;;;14.32;100.00;101379.38;5053683;28;45749;-86
2022/02/20 07:30:28;;;;;;;;;1.00;1.00;;;;;14.38;100.00;101371.72;5066747;28;45674;-85
2022/02/20 07:32:54;;;;;;;;;1.33;1.33;;;;;14.37;100.00;101372.53;5058288;28;46292;-88
2022/02/20 07:35:20;;;;;;;;;1.33;0.33;;;;;14.48;100.00;101379.13;5076081;28;45347;-91
2022/02/20 07:37:46;;;;;;;;;6.33;2.00;;;;;14.46;100.00;101362.31;5071459;28;44780;-92
2022/02/20 07:40:11;;;;;;;;;2.67;2.00;;;;;14.50;100.00;101374.84;5068613;28;45333;-90
2022/02/20 07:42:37;;;;;;;;;2.67;1.00;;;;;14.52;100.00;101390.72;5076409;28;47315;-88
2022/02/20 07:45:03;;;;;;;;;7.00;2.67;;;;;14.53;100.00;101387.25;5082769;28;45362;-88
2022/02/20 07:47:28;;;;;;;;;7.00;3.00;;;;;14.55;100.00;101387.31;5076015;28;45324;-89
2022/02/20 07:49:54;;;;;;;;;2.67;2.67;;;;;14.61;100.00;101388.44;5074004;27;45513;-89
2022/02/20 07:52:21;;;;;;;;;6.00;2.33;;;;;14.68;100.00;101388.69;5066320;28;45603;-88
2022/02/20 07:54:46;;;;;;;;;3.67;1.00;;;;;14.72;100.00;101403.81;5073490;28;45613;-89
2022/02/20 07:57:11;;;;;;;;;2.00;2.00;;;;;14.80;100.00;101419.97;5063252;28;45604;-89
2022/02/20 07:59:37;;;;;;;;;4.00;3.33;;;;;14.82;100.00;101428.84;5059438;28;45562;-89
2022/02/20 08:02:03;;;;;;;;;3.67;3.00;;;;;14.88;100.00;101412.38;5058470;28;47030;-89
2022/02/20 08:04:28;;;;;;;;;4.00;2.00;;;;;14.88;100.00;101408.00;5065757;28;45656;-90
2022/02/20 08:06:54;;;;;;;;;2.00;2.00;;;;;14.96;100.00;101417.13;5064375;28;45686;-91
2022/02/20 08:09:19;;;;;;;;;4.00;3.00;;;;;15.01;100.00;101392.59;5075140;28;45440;-89
2022/02/20 08:11:45;;;;;;;;;2.33;1.33;;;;;15.08;100.00;101374.38;5073156;28;46513;-89
2022/02/20 08:14:11;;;;;;;;;2.33;1.33;;;;;15.13;100.00;101369.25;5075009;28;45568;-91
2022/02/20 08:16:37;;;;;;;;;2.67;1.00;;;;;15.17;100.00;101362.34;5053311;28;45487;-92
2022/02/20 08:19:03;;;;;;;;;3.00;1.00;;;;;15.27;100.00;101369.75;5056800;28;45736;-87
2022/02/20 08:21:28;;;;;;;;;3.33;3.00;;;;;15.36;100.00;101374.47;5073411;28;46243;-90
2022/02/20 08:23:54;;;;;;;;;2.33;1.00;;;;;15.53;100.00;101397.97;5048501;28;45534;-90
2022/02/20 08:26:19;;;;;;;;;2.00;1.67;;;;;15.62;100.00;101379.78;5073363;28;45589;-90
2022/02/20 08:28:45;;;;;;;;;5.00;2.67;;;;;15.71;100.00;101379.19;5069799;28;45363;-91
2022/02/20 08:31:11;;;;;;;;;4.00;3.00;;;;;15.80;100.00;101382.97;5055081;28;48438;-89
2022/02/20 08:33:37;;;;;;;;;1.00;1.00;;;;;15.86;100.00;101384.13;5068621;28;45459;-89
2022/02/20 08:36:02;;;;;;;;;2.67;2.67;;;;;15.90;100.00;101371.84;5046921;28;45545;-89
2022/02/20 08:38:28;;;;;;;;;4.67;1.33;;;;;15.97;100.00;101365.94;5070889;28;45573;-90
2022/02/20 08:40:53;;;;;;;;;4.00;3.00;;;;;16.04;100.00;101353.78;5058405;28;47972;-93
2022/02/20 08:43:20;;;;;;;;;4.00;3.00;;;;;16.18;100.00;101351.59;5056749;28;45614;-92
2022/02/20 08:45:48;;;;;;;;;3.67;2.67;;;;;16.35;100.00;101379.50;5048737;28;45330;-90
2022/02/20 08:48:14;;;;;;;;;5.00;1.00;;;;;16.38;100.00;101393.75;5042348;28;45658;-91
2022/02/20 08:50:42;;;;;;;;;3.00;2.00;;;;;16.33;100.00;101381.19;5062478;28;47171;-90
2022/02/20 08:53:07;;;;;;;;;5.33;2.33;;;;;16.33;100.00;101370.59;5056519;28;45467;-90
2022/02/20 08:55:32;;;;;;;;;2.67;2.00;;;;;16.35;100.00;101371.53;5067606;28;45486;-87
2022/02/20 08:57:58;;;;;;;;;4.33;2.33;;;;;16.30;100.00;101356.41;5056661;28;45519;-89
2022/02/20 09:00:24;;;;;;;;;4.00;3.00;;;;;16.23;100.00;101357.09;5048170;28;45947;-86
2022/02/20 09:02:49;;;;;;;;;2.33;2.00;;;;;16.26;100.00;101373.03;5080267;28;45574;-87
2022/02/20 09:05:15;;;;;;;;;2.00;1.00;;;;;16.31;100.00;101381.16;5056594;28;45471;-86
2022/02/20 09:07:40;;;;;;;;;4.33;2.00;;;;;16.35;100.00;101380.41;5071307;28;45466;-86
2022/02/20 09:10:08;;;;;;;;;1.00;1.00;;;;;16.52;100.00;101383.56;5069235;28;46606;-86
2022/02/20 09:12:37;;;;;;;;;5.00;1.67;;;;;16.78;100.00;101379.91;5068367;28;46048;-88
2022/02/20 09:15:04;;;;;;;;;5.00;2.00;;;;;16.98;100.00;101388.44;5074304;28;45539;-87
2022/02/20 09:17:30;;;;;;;;;2.67;1.00;;;;;16.97;100.00;101370.75;5067379;28;45595;-88
2022/02/20 09:19:55;;;;;;;;;7.33;2.00;;;;;16.94;100.00;101375.06;5053093;28;47209;-87
2022/02/20 09:22:21;;;;;;;;;4.33;3.00;;;;;16.86;100.00;101375.75;5063498;28;45517;-88
2022/02/20 09:24:46;;;;;;;;;2.00;1.67;;;;;16.93;100.00;101368.84;5069908;28;45364;-86
2022/02/20 09:27:12;;;;;;;;;4.00;2.33;;;;;17.07;100.00;101386.91;5071756;28;45512;-87
2022/02/20 09:29:37;;;;;;;;;2.00;2.00;;;;;17.24;100.00;101367.97;5063365;28;46697;-90
2022/02/20 09:32:03;;;;;;;;;2.67;1.67;;;;;17.29;100.00;101372.53;5065443;28;45451;-91
2022/02/20 09:34:29;;;;;;;;;3.67;1.33;;;;;17.41;100.00;101357.81;5050495;28;45935;-87
2022/02/20 09:36:54;;;;;;;;;2.00;1.00;;;;;17.45;100.00;101372.94;5066728;28;45782;-87
2022/02/20 09:39:20;;;;;;;;;4.67;2.00;;;;;17.38;100.00;101365.69;5072206;28;46389;-88
2022/02/20 09:41:45;;;;;;;;;3.00;1.33;;;;;17.33;100.00;101354.97;5057451;28;45507;-89
2022/02/20 09:44:11;;;;;;;;;5.67;3.33;;;;;17.59;100.00;101345.88;5067418;28;45604;-90
2022/02/20 09:46:41;;;;;;;;;5.00;1.00;;;;;17.84;100.00;101328.81;5071135;28;45506;-89
2022/02/20 09:49:07;;;;;;;;;2.00;2.00;;;;;18.04;100.00;101348.75;5070993;28;45571;-89
2022/02/20 09:51:33;;;;;;;;;2.00;2.00;;;;;17.99;100.00;101340.66;5056789;28;45280;-88
2022/02/20 09:53:58;;;;;;;;;2.00;2.00;;;;;17.86;100.00;101334.16;5070427;28;45522;-87
2022/02/20 09:56:24;;;;;;;;;2.00;2.00;;;;;17.70;100.00;101341.75;5068193;28;45463;-93
2022/02/20 09:58:50;;;;;;;;;3.00;2.00;;;;;17.57;100.00;101337.91;5067740;28;45559;-90
2022/02/20 10:01:17;;;;;;;;;2.00;2.00;;;;;17.55;100.00;101344.91;5066983;28;48514;-87
2022/02/20 10:03:45;;;;;;;;;1.33;1.33;;;;;17.53;100.00;101359.88;5060093;28;45609;-90
2022/02/20 10:06:14;;;;;;;;;4.33;3.00;;;;;17.46;100.00;101365.91;5053216;28;45548;-90
2022/02/20 10:08:43;;;;;;;;;1.33;1.33;;;;;17.62;100.00;101365.47;5054953;28;47978;-89
2022/02/20 10:11:29;;;;;;;;;2.33;1.00;;;;;17.85;100.00;101378.41;5072240;28;45490;-91
2022/02/20 10:13:56;;;;;;;;;5.67;2.00;;;;;17.84;100.00;101375.72;5054179;28;45451;-90
2022/02/20 10:16:22;;;;;;;;;1.00;1.00;;;;;18.01;100.00;101376.16;5052391;28;45483;-90
2022/02/20 10:18:50;;;;;;;;;3.00;3.00;;;;;18.22;100.00;101387.28;5049751;28;47206;-89
2022/02/20 10:21:22;;;;;;;;;2.67;1.67;;;;;18.54;100.00;101382.72;5060661;28;45570;-89
2022/02/20 10:23:48;;;;;;;;;5.00;3.33;;;;;18.78;100.00;101383.22;5045489;28;45542;-90
2022/02/20 10:26:18;;;;;;;;;6.00;1.67;;;;;18.87;100.00;101388.72;5072205;28;45341;-91
2022/02/20 10:29:05;;;;;;;;;5.33;1.33;;;;;18.98;100.00;101391.63;5052143;28;47329;-90
2022/02/20 10:31:36;;;;;;;;;2.00;2.00;;;;;18.92;100.00;101364.88;5049001;28;45913;-91
2022/02/20 10:34:13;;;;;;;;;4.33;2.00;;;;;18.92;100.00;101378.19;5053279;28;45758;-90
2022/02/20 10:36:45;;;;;;;;;2.00;1.00;;;;;18.94;100.00;101367.59;5071996;28;45419;-92
2022/02/20 10:39:24;;;;;;;;;3.00;2.00;;;;;18.92;100.00;101375.50;5073309;28;46242;-92
2022/02/20 10:41:50;;;;;;;;;4.67;2.00;;;;;18.92;100.00;101363.97;5063302;28;45525;-92
2022/02/20 10:44:16;;;;;;;;;2.33;2.00;;;;;18.79;100.00;101376.13;5073459;28;45438;-90
2022/02/20 10:46:42;;;;;;;;;3.00;2.00;;;;;18.64;100.00;101373.19;5053569;28;45498;-90
2022/02/20 10:49:07;;;;;;;;;1.00;1.00;;;;;18.55;100.00;101383.63;5053661;28;48405;-88
2022/02/20 10:51:40;;;;;;;;;4.00;2.67;;;;;18.58;100.00;101372.16;5071752;28;45591;-89
2022/02/20 10:54:06;;;;;;;;;4.00;3.00;;;;;18.62;100.00;101371.34;5050804;28;45537;-88
2022/02/20 10:56:44;;;;;;;;;3.00;2.00;;;;;18.86;100.00;101362.97;5050526;28;45556;-89
2022/02/20 10:59:10;;;;;;;;;2.67;1.00;;;;;18.85;100.00;101357.63;5072558;28;46202;-88
2022/02/20 11:01:36;;;;;;;;;4.33;1.67;;;;;18.92;100.00;101342.69;5069389;28;45358;-87
2022/02/20 11:04:13;;;;;;;;;2.00;2.00;;;;;19.03;100.00;101335.84;5068584;28;45510;-87
2022/02/20 11:06:44;;;;;;;;;5.00;2.33;;;;;19.06;100.00;101345.66;5053779;28;45434;-88
2022/02/20 11:09:10;;;;;;;;;2.67;0.00;;;;;19.02;100.00;101333.16;5073413;28;45404;-90
2022/02/20 11:11:39;;;;;;;;;2.67;2.67;;;;;19.13;100.00;101336.91;5056147;28;45996;-90